createdAt,value
2023-03-18T00:01:12.688Z,20.97
2023-03-18T00:03:42.735Z,20.70
2023-03-18T00:06:14.371Z,19.97
2023-03-18T00:08:45.813Z,20.70
2023-03-18T00:11:17.570Z,19.00
2023-03-18T00:14:06.010Z,18.67
2023-03-18T00:16:54.983Z,18.27
2023-03-18T00:19:25.812Z,17.70
2023-03-18T00:21:56.229Z,17.50
2023-03-18T00:24:27.181Z,17.77
2023-03-18T00:26:57.801Z,16.33
2023-03-18T00:29:27.573Z,17.63
2023-03-18T00:32:17.256Z,18.30
2023-03-18T00:34:47.423Z,17.87
2023-03-18T00:37:30.631Z,17.53
2023-03-18T00:40:06.791Z,16.67
2023-03-18T00:42:40.091Z,17.43
2023-03-18T00:45:12.357Z,17.03
2023-03-18T00:47:45.663Z,16.17
2023-03-18T00:53:22.257Z,16.60
2023-03-18T00:56:09.165Z,16.43
2023-03-18T00:58:40.099Z,17.07
2023-03-18T01:01:30.175Z,17.13
2023-03-18T01:04:05.026Z,16.10
2023-03-18T01:06:36.869Z,16.33
2023-03-18T01:09:09.359Z,15.67
2023-03-18T01:11:41.822Z,16.27
2023-03-18T01:14:12.970Z,16.17
2023-03-18T01:16:43.773Z,15.57
2023-03-18T01:19:17.208Z,16.13
2023-03-18T01:21:47.242Z,16.30
2023-03-18T01:24:17.337Z,15.93
2023-03-18T01:26:47.552Z,16.77
2023-03-18T01:29:18.292Z,17.00
2023-03-18T01:31:48.655Z,16.93
2023-03-18T01:34:22.154Z,16.07
2023-03-18T01:36:54.380Z,17.60
2023-03-18T01:39:27.359Z,16.53
2023-03-18T01:42:00.659Z,16.73
2023-03-18T01:44:34.235Z,17.07
2023-03-18T01:47:05.402Z,16.17
2023-03-18T01:49:43.201Z,16.83
2023-03-18T01:52:33.909Z,17.50
2023-03-18T01:55:08.015Z,17.30
2023-03-18T01:57:38.556Z,18.27
2023-03-18T02:00:11.492Z,17.20
2023-03-18T02:03:02.975Z,17.43
2023-03-18T02:05:34.911Z,16.30
2023-03-18T02:08:23.357Z,17.17
2023-03-18T02:10:53.995Z,16.77
2023-03-18T02:13:25.338Z,16.90
2023-03-18T02:15:59.033Z,16.57
2023-03-18T02:18:50.460Z,16.30
2023-03-18T02:21:41.513Z,17.33
2023-03-18T02:24:21.522Z,16.40
2023-03-18T02:26:59.125Z,16.53
2023-03-18T02:29:38.762Z,16.17
2023-03-18T02:32:15.423Z,17.57
2023-03-18T02:34:47.290Z,17.13
2023-03-18T02:37:17.425Z,17.03
2023-03-18T02:39:47.529Z,17.67
2023-03-18T02:42:20.719Z,17.57
2023-03-18T02:45:13.877Z,17.30
2023-03-18T02:47:56.797Z,17.67
2023-03-18T02:50:26.913Z,16.87
2023-03-18T02:53:15.769Z,17.23
2023-03-18T02:55:46.703Z,16.67
2023-03-18T02:58:17.143Z,17.30
2023-03-18T03:00:50.318Z,17.30
2023-03-18T03:03:20.287Z,17.43
2023-03-18T03:05:50.361Z,17.27
2023-03-18T03:08:23.359Z,17.47
2023-03-18T03:11:10.364Z,19.33
2023-03-18T03:13:59.531Z,19.10
2023-03-18T03:16:50.054Z,18.83
2023-03-18T03:19:20.140Z,20.47
2023-03-18T03:21:50.018Z,19.07
2023-03-18T03:24:38.207Z,19.50
2023-03-18T03:27:09.658Z,19.93
2023-03-18T03:29:39.886Z,18.60
2023-03-18T03:32:12.551Z,19.77
2023-03-18T03:34:42.366Z,19.07
2023-03-18T03:37:14.835Z,18.53
2023-03-18T03:39:45.380Z,18.43
2023-03-18T03:42:15.287Z,20.97
2023-03-18T03:44:46.932Z,21.20
2023-03-18T03:47:18.284Z,19.87
2023-03-18T03:50:07.340Z,21.67
2023-03-18T03:52:37.771Z,20.60
2023-03-18T03:55:10.144Z,21.03
2023-03-18T03:57:40.293Z,21.80
2023-03-18T04:00:14.611Z,20.60
2023-03-18T04:08:46.893Z,22.37
2023-03-18T04:11:16.802Z,21.07
2023-03-18T04:13:47.121Z,23.13
2023-03-18T04:19:24.231Z,21.03
2023-03-18T04:21:54.853Z,21.57
2023-03-18T04:25:00.444Z,23.03
2023-03-18T04:27:31.042Z,21.17
2023-03-18T04:30:07.511Z,20.80
2023-03-18T04:33:13.638Z,19.23
2023-03-18T04:35:46.695Z,19.20
2023-03-18T04:38:18.467Z,18.97
2023-03-18T04:41:09.335Z,19.20
2023-03-18T04:43:39.528Z,18.27
2023-03-18T04:46:11.348Z,18.40
2023-03-18T04:48:42.261Z,17.87
2023-03-18T04:51:32.342Z,18.33
2023-03-18T04:54:04.289Z,17.83
2023-03-18T04:56:35.022Z,18.50
2023-03-18T04:59:05.751Z,18.03
2023-03-18T05:01:36.789Z,18.07
2023-03-18T05:04:07.156Z,18.33
2023-03-18T05:06:52.589Z,19.07
2023-03-18T05:09:28.342Z,19.90
2023-03-18T05:11:58.487Z,18.47
2023-03-18T05:14:33.500Z,19.60
2023-03-18T05:17:04.507Z,21.10
2023-03-18T05:19:37.732Z,19.90
2023-03-18T05:22:21.466Z,20.97
2023-03-18T05:24:56.489Z,21.57
2023-03-18T05:27:30.233Z,22.33
2023-03-18T05:30:12.101Z,22.67
2023-03-18T05:33:05.381Z,23.47
2023-03-18T05:35:46.770Z,24.10
2023-03-18T05:38:19.744Z,24.97
2023-03-18T05:41:08.788Z,24.40
2023-03-18T05:43:45.161Z,24.07
2023-03-18T05:46:16.267Z,23.63
2023-03-18T05:49:18.654Z,23.00
2023-03-18T05:52:06.917Z,24.07
2023-03-18T05:57:55.388Z,25.63
2023-03-18T06:03:15.453Z,25.57
2023-03-18T06:05:46.628Z,25.00
2023-03-18T06:08:22.999Z,24.87
2023-03-18T06:10:55.168Z,26.47
2023-03-18T06:13:25.188Z,26.10
2023-03-18T06:15:59.499Z,27.43
2023-03-18T06:18:31.966Z,26.23
2023-03-18T06:21:03.119Z,26.17
2023-03-18T06:23:34.471Z,25.97
2023-03-18T06:29:33.172Z,26.47
2023-03-18T06:32:12.612Z,27.10
2023-03-18T06:34:42.835Z,27.27
2023-03-18T06:37:12.840Z,28.40
2023-03-18T06:39:42.632Z,26.40
2023-03-18T06:42:14.846Z,29.23
2023-03-18T06:45:24.158Z,28.40
2023-03-18T06:48:01.469Z,28.17
2023-03-18T06:50:33.513Z,28.97
2023-03-18T06:53:04.569Z,28.67
2023-03-18T06:55:36.220Z,28.43
2023-03-18T06:58:09.507Z,28.67
2023-03-18T07:00:57.584Z,29.10
2023-03-18T07:03:31.262Z,29.13
2023-03-18T07:06:03.017Z,30.73
2023-03-18T07:09:09.383Z,30.33
2023-03-18T07:11:57.931Z,30.80
2023-03-18T07:14:49.132Z,33.03
2023-03-18T07:17:20.976Z,32.87
2023-03-18T07:20:09.047Z,33.10
2023-03-18T07:22:39.569Z,32.50
2023-03-18T07:27:57.283Z,32.40
2023-03-18T07:30:29.621Z,32.67
2023-03-18T07:32:59.875Z,32.03
2023-03-18T07:35:47.147Z,30.87
2023-03-18T07:38:18.568Z,30.53
2023-03-18T07:40:49.301Z,30.67
2023-03-18T07:43:19.218Z,30.17
2023-03-18T07:46:08.309Z,30.43
2023-03-18T07:48:38.580Z,30.27
2023-03-18T07:51:26.954Z,31.10
2023-03-18T07:53:56.893Z,31.33
2023-03-18T07:57:02.166Z,30.57
2023-03-18T07:59:34.797Z,31.27
2023-03-18T08:02:24.363Z,30.50
2023-03-18T08:05:14.186Z,30.80
2023-03-18T08:08:05.630Z,29.77
2023-03-18T08:10:58.516Z,29.67
2023-03-18T08:13:29.345Z,30.47
2023-03-18T08:18:47.713Z,30.33
2023-03-18T08:21:18.733Z,29.70
2023-03-18T08:23:49.285Z,29.50
2023-03-18T08:26:37.635Z,28.53
2023-03-18T08:29:07.553Z,29.40
2023-03-18T08:31:37.306Z,29.03
2023-03-18T08:34:26.526Z,28.57
2023-03-18T08:36:56.429Z,26.70
2023-03-18T08:39:27.589Z,27.40
2023-03-18T08:41:57.708Z,28.17
2023-03-18T08:44:27.934Z,27.23
2023-03-18T08:47:15.859Z,26.60
2023-03-18T08:49:48.710Z,27.17
2023-03-18T08:52:38.543Z,25.97
2023-03-18T08:55:10.312Z,27.23
2023-03-18T08:57:40.535Z,27.07
2023-03-18T09:00:46.390Z,27.00
2023-03-18T09:03:16.793Z,25.80
2023-03-18T09:06:09.129Z,28.30
2023-03-18T09:08:57.474Z,27.83
2023-03-18T09:11:28.521Z,28.03
2023-03-18T09:13:58.739Z,28.70
2023-03-18T09:16:29.389Z,27.63
2023-03-18T09:18:59.271Z,28.37
2023-03-18T09:21:30.627Z,28.33
2023-03-18T09:24:00.673Z,27.97
2023-03-18T09:26:30.568Z,28.57
2023-03-18T09:29:00.357Z,26.03
2023-03-18T09:31:32.331Z,25.27
2023-03-18T09:34:03.225Z,24.87
2023-03-18T09:36:54.474Z,25.53
2023-03-18T09:39:25.415Z,25.03
2023-03-18T09:42:12.225Z,26.67
2023-03-18T09:45:00.165Z,26.13
2023-03-18T09:47:54.456Z,25.87
2023-03-18T09:50:45.161Z,25.30
2023-03-18T09:53:22.239Z,25.67
2023-03-18T09:55:56.341Z,24.80
2023-03-18T09:58:31.605Z,23.90
2023-03-18T10:01:04.583Z,24.37
2023-03-18T10:03:55.522Z,24.27
2023-03-18T10:06:26.617Z,23.23
2023-03-18T10:09:08.827Z,22.90
2023-03-18T10:12:01.076Z,23.67
2023-03-18T10:14:39.171Z,23.20
2023-03-18T10:17:18.934Z,21.83
2023-03-18T10:20:30.609Z,25.17
2023-03-18T10:23:31.246Z,21.63
2023-03-18T10:26:07.912Z,18.83
2023-03-18T10:29:02.615Z,21.90
2023-03-18T10:32:11.804Z,20.23
2023-03-18T10:34:47.901Z,18.90
2023-03-18T10:37:25.891Z,18.13
2023-03-18T10:43:06.697Z,16.13
2023-03-18T10:45:38.777Z,15.20
2023-03-18T10:48:14.819Z,15.13
2023-03-18T10:50:48.630Z,17.23
2023-03-18T10:56:31.228Z,18.80
2023-03-18T10:59:24.952Z,17.00
2023-03-18T11:01:59.986Z,16.77
2023-03-18T11:07:24.267Z,15.27
2023-03-18T11:09:55.414Z,16.70
2023-03-18T11:12:46.428Z,15.40
2023-03-18T11:15:24.638Z,15.10
2023-03-18T11:18:00.378Z,14.50
2023-03-18T11:20:43.599Z,14.13
2023-03-18T11:26:34.221Z,13.88
2023-03-18T11:29:13.651Z,12.35
2023-03-18T11:37:36.136Z,11.05
2023-03-18T11:43:32.495Z,10.98
2023-03-18T11:49:02.330Z,9.95
2023-03-18T11:51:48.416Z,10.30
2023-03-18T11:55:02.368Z,9.63
2023-03-18T11:57:43.944Z,10.63
2023-03-18T12:00:40.076Z,11.30
2023-03-18T12:03:59.558Z,11.32
2023-03-18T12:06:33.567Z,11.60
2023-03-18T12:09:11.370Z,10.90
2023-03-18T12:11:57.764Z,11.77
2023-03-18T12:14:35.769Z,8.20
2023-03-18T12:17:19.243Z,9.10
2023-03-18T12:20:14.987Z,10.23
2023-03-18T12:23:12.986Z,10.05
2023-03-18T12:26:00.215Z,10.45
2023-03-18T12:29:00.795Z,10.10
2023-03-18T12:32:06.326Z,9.00
2023-03-18T12:34:53.628Z,10.57
2023-03-18T12:37:33.572Z,13.55
2023-03-18T12:40:25.724Z,13.13
2023-03-18T12:43:27.769Z,13.48
2023-03-18T12:46:05.912Z,13.10
2023-03-18T12:48:44.571Z,14.00
2023-03-18T12:51:19.488Z,14.60
2023-03-18T12:53:55.595Z,12.88
2023-03-18T12:56:47.411Z,13.65
2023-03-18T12:59:23.479Z,12.60
2023-03-18T13:02:24.273Z,12.27
2023-03-18T13:04:59.555Z,12.90
2023-03-18T13:07:39.909Z,12.60
2023-03-18T13:10:37.946Z,12.50
2023-03-18T13:13:12.908Z,12.80
2023-03-18T13:15:46.927Z,12.60
2023-03-18T13:18:58.010Z,12.10
2023-03-18T13:21:48.719Z,12.43
2023-03-18T13:24:45.246Z,12.45
2023-03-18T13:27:32.362Z,13.52
2023-03-18T13:30:55.851Z,13.52
2023-03-18T13:34:06.494Z,12.52
2023-03-18T13:40:20.580Z,12.02
2023-03-18T13:42:51.494Z,11.90
2023-03-18T13:48:20.211Z,12.88
2023-03-18T13:50:54.005Z,11.80
2023-03-18T13:53:47.274Z,11.23
2023-03-18T13:56:46.888Z,13.40
2023-03-18T13:59:50.176Z,12.25
2023-03-18T14:02:48.598Z,12.48
2023-03-18T14:05:40.653Z,12.98
2023-03-18T14:08:49.323Z,12.93
2023-03-18T14:12:08.280Z,14.02
2023-03-18T14:14:59.180Z,13.38
2023-03-18T14:17:35.469Z,14.00
2023-03-18T14:20:27.584Z,13.63
2023-03-18T14:23:32.009Z,13.50
2023-03-18T14:26:10.737Z,13.75
2023-03-18T14:31:52.559Z,14.63
2023-03-18T14:34:48.266Z,14.48
2023-03-18T14:37:28.737Z,14.90
2023-03-18T14:40:17.489Z,15.02
2023-03-18T14:47:37.868Z,14.40
2023-03-18T14:50:35.579Z,14.40
2023-03-18T14:53:34.115Z,16.55
2023-03-18T14:56:10.836Z,16.20
2023-03-18T14:59:18.641Z,15.10
2023-03-18T15:01:56.681Z,16.15
2023-03-18T15:04:33.933Z,15.75
2023-03-18T15:07:11.940Z,16.70
2023-03-18T15:10:05.096Z,15.75
2023-03-18T15:12:35.201Z,15.73
2023-03-18T15:15:05.029Z,16.48
2023-03-18T15:17:55.931Z,16.10
2023-03-18T15:20:46.140Z,17.13
2023-03-18T15:23:36.108Z,16.15
2023-03-18T15:26:09.912Z,17.55
2023-03-18T15:31:44.829Z,16.45
2023-03-18T15:34:39.672Z,16.83
2023-03-18T15:37:40.710Z,13.45
2023-03-18T15:40:48.391Z,13.10
2023-03-18T15:43:46.274Z,11.63
2023-03-18T15:46:20.811Z,13.63
2023-03-18T15:48:56.161Z,13.30
2023-03-18T15:51:45.499Z,9.93
2023-03-18T15:54:21.358Z,8.30
2023-03-18T15:56:55.173Z,8.95
2023-03-18T15:59:29.171Z,7.75
2023-03-18T16:02:18.968Z,7.55
2023-03-18T16:04:49.453Z,7.90
2023-03-18T16:07:38.038Z,7.40
2023-03-18T16:10:11.837Z,7.15
2023-03-18T16:13:00.606Z,6.60
2023-03-18T16:15:52.633Z,6.47
2023-03-18T16:18:41.079Z,6.53
2023-03-18T16:21:47.854Z,6.03
2023-03-18T16:27:31.095Z,5.55
2023-03-18T16:30:03.608Z,5.82
2023-03-18T16:32:36.490Z,5.60
2023-03-18T16:35:07.463Z,5.70
2023-03-18T16:37:39.562Z,5.68
2023-03-18T16:40:18.288Z,4.90
2023-03-18T16:42:49.537Z,5.00
2023-03-18T16:45:37.790Z,4.88
2023-03-18T16:51:16.922Z,5.20
2023-03-18T16:54:07.116Z,5.00
2023-03-18T16:56:37.646Z,4.87
2023-03-18T16:59:16.561Z,5.80
2023-03-18T17:01:47.324Z,6.17
2023-03-18T17:04:31.177Z,6.13
2023-03-18T17:07:09.860Z,5.83
2023-03-18T17:09:40.201Z,5.93
2023-03-18T17:12:12.053Z,4.90
2023-03-18T17:15:03.365Z,5.07
2023-03-18T17:17:36.259Z,4.83
2023-03-18T17:20:19.479Z,4.60
2023-03-18T17:22:50.406Z,4.57
2023-03-18T17:25:39.375Z,4.50
2023-03-18T17:28:13.578Z,4.37
2023-03-18T17:30:44.859Z,4.60
2023-03-18T17:33:26.425Z,4.47
2023-03-18T17:35:57.795Z,5.07
2023-03-18T17:38:29.113Z,4.50
2023-03-18T17:40:59.486Z,5.27
2023-03-18T17:43:31.119Z,5.10
2023-03-18T17:46:03.834Z,5.90
2023-03-18T17:48:35.858Z,5.47
2023-03-18T17:51:27.778Z,5.63
2023-03-18T17:54:00.857Z,6.37
2023-03-18T17:56:30.986Z,5.93
2023-03-18T17:59:00.891Z,6.20
2023-03-18T18:01:49.939Z,7.20
2023-03-18T18:04:21.813Z,7.67
2023-03-18T18:07:19.078Z,7.80
2023-03-18T18:09:50.013Z,9.50
2023-03-18T18:12:25.766Z,13.63
2023-03-18T18:15:26.908Z,14.50
2023-03-18T18:17:58.361Z,12.17
2023-03-18T18:20:47.204Z,11.20
2023-03-18T18:23:26.144Z,11.80
2023-03-18T18:25:58.651Z,10.40
2023-03-18T18:28:52.906Z,9.73
2023-03-18T18:31:26.326Z,10.20
2023-03-18T18:33:56.921Z,11.80
2023-03-18T18:36:46.298Z,11.50
2023-03-18T18:39:19.623Z,10.43
2023-03-18T18:41:55.127Z,9.43
2023-03-18T18:44:27.298Z,9.97
2023-03-18T18:47:01.235Z,9.37
2023-03-18T18:49:33.366Z,8.23
2023-03-18T18:52:03.797Z,8.00
2023-03-18T18:57:29.017Z,8.57
2023-03-18T18:59:59.249Z,8.60
2023-03-18T19:02:37.043Z,8.03
2023-03-18T19:05:25.901Z,8.70
2023-03-18T19:07:56.280Z,9.40
2023-03-18T19:10:47.343Z,9.40
2023-03-18T19:13:17.478Z,8.10
2023-03-18T19:16:05.338Z,8.07
2023-03-18T19:18:39.506Z,13.77
2023-03-18T19:21:10.151Z,13.23
2023-03-18T19:23:41.177Z,13.60
2023-03-18T19:26:19.189Z,18.20
2023-03-18T19:31:45.194Z,16.57
2023-03-18T19:34:19.133Z,15.03
2023-03-18T19:36:53.516Z,14.03
2023-03-18T19:39:28.493Z,17.03
2023-03-18T19:42:03.523Z,20.57
2023-03-18T19:44:33.941Z,16.30
2023-03-18T19:47:04.677Z,15.97
2023-03-18T19:49:53.636Z,16.07
2023-03-18T19:52:27.041Z,22.50
2023-03-18T19:55:21.322Z,21.90
2023-03-18T19:57:53.975Z,20.93
2023-03-18T20:03:19.838Z,18.73
2023-03-18T20:11:30.103Z,18.03
2023-03-18T20:14:02.905Z,16.97
2023-03-18T20:16:35.928Z,22.33
2023-03-18T20:19:08.784Z,26.60
2023-03-18T20:21:40.236Z,22.67
2023-03-18T20:24:13.834Z,23.13
2023-03-18T20:26:44.888Z,20.63
2023-03-18T20:29:42.443Z,24.47
2023-03-18T20:32:13.593Z,18.77
2023-03-18T20:34:44.529Z,17.03
2023-03-18T20:37:24.988Z,17.20
2023-03-18T20:39:54.943Z,16.73
2023-03-18T20:42:43.616Z,16.30
2023-03-18T20:45:19.098Z,14.47
2023-03-18T20:48:07.826Z,13.33
2023-03-18T20:50:37.765Z,23.63
2023-03-18T20:53:13.613Z,24.20
2023-03-18T20:55:43.536Z,19.73
2023-03-18T20:58:31.985Z,16.50
2023-03-18T21:01:04.214Z,14.30
2023-03-18T21:03:36.628Z,13.53
2023-03-18T21:06:07.366Z,13.03
2023-03-18T21:08:37.790Z,13.87
2023-03-18T21:11:08.546Z,12.63
2023-03-18T21:13:57.200Z,13.33
2023-03-18T21:16:28.991Z,12.37
2023-03-18T21:19:17.688Z,12.50
2023-03-18T21:21:48.008Z,12.50
2023-03-18T21:24:36.470Z,13.10
2023-03-18T21:27:06.874Z,17.97
2023-03-18T21:29:36.801Z,26.50
2023-03-18T21:32:08.656Z,24.63
2023-03-18T21:34:58.235Z,19.80
2023-03-18T21:37:29.486Z,20.40
2023-03-18T21:40:20.185Z,25.00
2023-03-18T21:42:51.357Z,25.63
2023-03-18T21:48:13.997Z,27.97
2023-03-18T21:51:02.125Z,36.57
2023-03-18T21:53:32.450Z,23.77
2023-03-18T21:56:03.606Z,21.70
2023-03-18T21:58:33.682Z,17.23
2023-03-18T22:01:03.941Z,20.67
2023-03-18T22:03:36.214Z,18.33
2023-03-18T22:06:08.191Z,16.57
2023-03-18T22:08:38.185Z,17.33
2023-03-18T22:11:14.967Z,19.07
2023-03-18T22:14:03.730Z,17.27
2023-03-18T22:16:33.947Z,17.53
2023-03-18T22:19:05.392Z,16.53
2023-03-18T22:22:14.328Z,16.50
2023-03-18T22:24:47.300Z,17.93
2023-03-18T22:27:22.047Z,16.93
2023-03-18T22:30:08.627Z,17.60
2023-03-18T22:32:41.126Z,17.40
2023-03-18T22:35:17.675Z,19.97
2023-03-18T22:37:47.935Z,18.50
2023-03-18T22:40:19.972Z,19.23
2023-03-18T22:42:51.017Z,20.33
2023-03-18T22:45:40.723Z,16.47
2023-03-18T22:48:18.188Z,17.33
2023-03-18T22:50:49.747Z,19.00
2023-03-18T22:53:23.736Z,17.30
2023-03-18T22:55:56.010Z,17.53
2023-03-18T22:58:27.989Z,16.87
2023-03-18T23:00:57.994Z,16.17
2023-03-18T23:03:30.976Z,15.60
2023-03-18T23:06:03.805Z,16.57
2023-03-18T23:08:33.973Z,16.97
2023-03-18T23:11:05.932Z,16.07
2023-03-18T23:13:38.619Z,16.50
2023-03-18T23:16:11.222Z,16.17
2023-03-18T23:18:58.819Z,16.90
2023-03-18T23:21:30.581Z,16.83
2023-03-18T23:24:00.386Z,15.90
2023-03-18T23:26:30.094Z,16.47
2023-03-18T23:32:05.149Z,16.83
2023-03-18T23:34:34.750Z,16.13
2023-03-18T23:37:06.110Z,15.53
2023-03-18T23:39:35.931Z,15.87
2023-03-18T23:42:24.377Z,16.83
2023-03-18T23:47:42.546Z,15.80
2023-03-18T23:50:31.064Z,17.97
2023-03-18T23:53:03.043Z,16.13
2023-03-18T23:55:35.281Z,16.50
2023-03-18T23:58:23.758Z,17.60
